createdAt,value
2023-04-29T00:02:55.826Z,98589.34
2023-04-29T00:06:12.772Z,98588.67
2023-04-29T00:09:29.242Z,98590.13
2023-04-29T00:12:45.500Z,98591.45
2023-04-29T00:16:02.314Z,98594.45
2023-04-29T00:19:19.274Z,98593.95
2023-04-29T00:22:35.491Z,98582.06
2023-04-29T00:25:53.790Z,98588.28
2023-04-29T00:29:10.092Z,98585.27
2023-04-29T00:32:26.522Z,98593.35
2023-04-29T00:35:43.019Z,98593.22
2023-04-29T00:38:59.673Z,98583.31
2023-04-29T00:42:16.883Z,98589.56
2023-04-29T00:45:33.478Z,98583.80
2023-04-29T00:48:49.832Z,98588.59
2023-04-29T00:52:09.003Z,98578.69
2023-04-29T00:55:25.648Z,98580.04
2023-04-29T00:58:42.093Z,98579.53
2023-04-29T01:01:58.919Z,98579.16
2023-04-29T01:05:18.905Z,98573.55
2023-04-29T01:08:40.026Z,98576.61
2023-04-29T01:12:08.175Z,98577.45
2023-04-29T01:15:29.461Z,98576.47
2023-04-29T01:18:51.470Z,98571.50
2023-04-29T01:22:09.623Z,98572.25
2023-04-29T01:25:26.578Z,98586.56
2023-04-29T01:29:06.572Z,98575.34
2023-04-29T01:32:28.922Z,98583.77
2023-04-29T01:35:54.668Z,98575.75
2023-04-29T01:39:18.282Z,98581.57
2023-04-29T01:42:42.281Z,98577.66
2023-04-29T01:46:05.271Z,98575.38
2023-04-29T01:49:23.002Z,98578.05
2023-04-29T01:52:39.332Z,98577.74
2023-04-29T01:55:55.653Z,98577.88
2023-04-29T01:59:13.721Z,98563.92
2023-04-29T02:02:32.319Z,98565.55
2023-04-29T02:05:51.468Z,98561.97
2023-04-29T02:09:08.093Z,98560.16
2023-04-29T02:12:24.854Z,98553.25
2023-04-29T02:15:41.234Z,98572.70
2023-04-29T02:18:57.932Z,98566.08
2023-04-29T02:22:14.329Z,98567.58
2023-04-29T02:25:31.378Z,98570.54
2023-04-29T02:28:48.127Z,98568.72
2023-04-29T02:32:04.400Z,98570.05
2023-04-29T02:35:21.896Z,98571.68
2023-04-29T02:38:38.197Z,98565.06
2023-04-29T02:41:54.429Z,98570.34
2023-04-29T02:45:11.373Z,98569.84
2023-04-29T02:48:27.759Z,98569.98
2023-04-29T02:51:44.069Z,98565.02
2023-04-29T02:55:00.455Z,98561.39
2023-04-29T02:58:16.867Z,98559.61
2023-04-29T03:01:33.220Z,98563.05
2023-04-29T03:04:49.605Z,98563.23
2023-04-29T03:08:06.137Z,98554.14
2023-04-29T03:11:24.700Z,98559.61
2023-04-29T03:14:42.074Z,98559.25
2023-04-29T03:18:00.240Z,98548.55
2023-04-29T03:21:16.894Z,98550.02
2023-04-29T03:24:33.553Z,98556.60
2023-04-29T03:27:50.172Z,98553.15
2023-04-29T03:31:06.631Z,98547.87
2023-04-29T03:34:23.177Z,98549.34
2023-04-29T03:37:44.615Z,98550.33
2023-04-29T03:41:03.468Z,98556.73
2023-04-29T03:44:20.138Z,98552.13
2023-04-29T03:47:37.136Z,98555.79
2023-04-29T03:50:54.077Z,98555.79
2023-04-29T03:54:10.924Z,98554.33
2023-04-29T03:57:27.886Z,98554.33
2023-04-29T04:00:44.418Z,98560.91
2023-04-29T04:04:02.622Z,98557.94
2023-04-29T04:07:20.225Z,98562.88
2023-04-29T04:10:38.600Z,98552.81
2023-04-29T04:13:56.664Z,98551.73
2023-04-29T04:17:13.271Z,98544.80
2023-04-29T04:20:29.666Z,98545.29
2023-04-29T04:23:47.358Z,98549.72
2023-04-29T04:27:05.352Z,98552.36
2023-04-29T04:30:23.836Z,98553.66
2023-04-29T04:33:40.170Z,98538.30
2023-04-29T04:36:56.960Z,98540.77
2023-04-29T04:40:16.102Z,98537.80
2023-04-29T04:43:34.064Z,98536.28
2023-04-29T04:46:51.626Z,98541.75
2023-04-29T04:50:10.317Z,98536.14
2023-04-29T04:53:26.684Z,98539.09
2023-04-29T04:56:44.939Z,98542.70
2023-04-29T05:00:01.529Z,98539.58
2023-04-29T05:03:18.292Z,98544.50
2023-04-29T05:06:34.999Z,98544.81
2023-04-29T05:09:51.633Z,98548.13
2023-04-29T05:13:08.355Z,98544.02
2023-04-29T05:16:28.264Z,98547.98
2023-04-29T05:19:46.621Z,98548.48
2023-04-29T05:23:02.969Z,98542.55
2023-04-29T05:26:20.937Z,98547.20
2023-04-29T05:29:39.076Z,98548.73
2023-04-29T05:32:57.261Z,98547.87
2023-04-29T05:36:14.531Z,98540.26
2023-04-29T05:39:30.873Z,98542.72
2023-04-29T05:42:48.892Z,98545.16
2023-04-29T05:46:07.511Z,98545.30
2023-04-29T05:49:23.985Z,98546.08
2023-04-29T05:52:40.430Z,98551.16
2023-04-29T05:55:57.888Z,98556.27
2023-04-29T05:59:14.322Z,98564.05
2023-04-29T06:02:32.432Z,98560.71
2023-04-29T06:05:49.791Z,98562.88
2023-04-29T06:09:27.936Z,98549.48
2023-04-29T06:12:47.632Z,98547.65
2023-04-29T06:16:05.080Z,98548.43
2023-04-29T06:19:22.566Z,98545.48
2023-04-29T06:22:38.952Z,98541.82
2023-04-29T06:25:55.451Z,98548.39
2023-04-29T06:29:12.332Z,98540.87
2023-04-29T06:32:29.613Z,98540.34
2023-04-29T06:35:48.917Z,98543.05
2023-04-29T06:39:23.505Z,98533.98
2023-04-29T06:42:42.210Z,98538.32
2023-04-29T06:46:09.445Z,98538.88
2023-04-29T06:49:27.989Z,98539.91
2023-04-29T06:52:44.515Z,98542.76
2023-04-29T06:56:01.081Z,98544.34
2023-04-29T06:59:17.701Z,98552.45
2023-04-29T07:02:34.891Z,98545.06
2023-04-29T07:05:53.144Z,98548.06
2023-04-29T07:09:13.114Z,98542.28
2023-04-29T07:12:29.493Z,98542.81
2023-04-29T07:15:46.661Z,98549.50
2023-04-29T07:19:03.046Z,98552.51
2023-04-29T07:22:19.496Z,98545.32
2023-04-29T07:25:36.960Z,98540.61
2023-04-29T07:28:56.109Z,98549.11
2023-04-29T07:32:13.721Z,98538.78
2023-04-29T07:35:30.476Z,98540.08
2023-04-29T07:38:47.079Z,98547.08
2023-04-29T07:42:04.031Z,98539.95
2023-04-29T07:45:21.056Z,98544.41
2023-04-29T07:48:39.223Z,98553.77
2023-04-29T07:51:55.532Z,98555.00
2023-04-29T07:55:13.290Z,98551.14
2023-04-29T07:58:29.710Z,98565.59
2023-04-29T08:01:46.099Z,98560.57
2023-04-29T08:05:03.815Z,98564.83
2023-04-29T08:08:20.833Z,98559.60
2023-04-29T08:11:40.882Z,98557.84
2023-04-29T08:14:58.961Z,98561.95
2023-04-29T08:19:09.919Z,98558.36
2023-04-29T08:22:26.524Z,98566.97
2023-04-29T08:25:43.068Z,98561.83
2023-04-29T08:28:59.710Z,98568.55
2023-04-29T08:32:16.941Z,98572.49
2023-04-29T08:35:34.449Z,98568.23
2023-04-29T08:38:53.036Z,98565.52
2023-04-29T08:42:15.491Z,98566.81
2023-04-29T08:45:35.154Z,98558.07
2023-04-29T08:48:52.147Z,98566.52
2023-04-29T08:52:08.764Z,98564.47
2023-04-29T08:55:25.538Z,98558.72
2023-04-29T08:58:45.386Z,98554.23
2023-04-29T09:02:04.354Z,98561.27
2023-04-29T09:05:21.403Z,98564.52
2023-04-29T09:08:38.365Z,98552.38
2023-04-29T09:11:56.415Z,98557.45
2023-04-29T09:15:14.673Z,98557.39
2023-04-29T09:18:53.079Z,98554.02
2023-04-29T09:22:11.008Z,98548.84
2023-04-29T09:25:28.660Z,98542.39
2023-04-29T09:28:48.684Z,98551.91
2023-04-29T09:32:05.098Z,98558.88
2023-04-29T09:35:35.557Z,98545.39
2023-04-29T09:39:02.850Z,98544.56
2023-04-29T09:42:19.933Z,98547.23
2023-04-29T09:45:48.304Z,98554.08
2023-04-29T09:49:05.542Z,98546.98
2023-04-29T09:52:25.385Z,98542.16
2023-04-29T09:55:42.385Z,98535.28
2023-04-29T09:58:58.771Z,98542.01
2023-04-29T10:02:21.843Z,98538.66
2023-04-29T10:05:40.878Z,98537.92
2023-04-29T10:08:58.350Z,98540.90
2023-04-29T10:12:15.664Z,98530.70
2023-04-29T10:15:38.860Z,98535.75
2023-04-29T10:19:00.798Z,98525.31
2023-04-29T10:22:22.188Z,98528.59
2023-04-29T10:25:40.970Z,98532.13
2023-04-29T10:29:00.182Z,98528.44
2023-04-29T10:32:18.373Z,98524.55
2023-04-29T10:35:34.918Z,98522.28
2023-04-29T10:38:56.404Z,98520.92
2023-04-29T10:42:21.988Z,98525.24
2023-04-29T10:45:39.414Z,98519.77
2023-04-29T10:48:57.647Z,98514.94
2023-04-29T10:52:16.498Z,98508.72
2023-04-29T10:55:34.215Z,98512.11
2023-04-29T10:58:54.716Z,98500.73
2023-04-29T11:02:11.331Z,98508.69
2023-04-29T11:05:37.488Z,98501.70
2023-04-29T11:08:56.070Z,98506.27
2023-04-29T11:12:15.945Z,98501.48
2023-04-29T11:15:33.525Z,98502.13
2023-04-29T11:19:15.914Z,98502.14
2023-04-29T11:22:39.329Z,98496.97
2023-04-29T11:25:55.771Z,98492.41
2023-04-29T11:29:12.856Z,98497.17
2023-04-29T11:32:32.364Z,98501.91
2023-04-29T11:35:49.800Z,98514.13
2023-04-29T11:39:07.768Z,98507.69
2023-04-29T11:42:28.855Z,98502.08
2023-04-29T11:45:48.091Z,98499.02
2023-04-29T11:49:06.282Z,98498.59
2023-04-29T11:52:23.541Z,98495.05
2023-04-29T11:55:40.071Z,98492.90
2023-04-29T11:58:57.705Z,98498.69
2023-04-29T12:02:14.297Z,98492.97
2023-04-29T12:05:32.789Z,98495.55
2023-04-29T12:08:49.320Z,98489.39
2023-04-29T12:12:07.898Z,98494.74
2023-04-29T12:15:24.845Z,98494.14
2023-04-29T12:18:42.092Z,98492.88
2023-04-29T12:22:01.811Z,98491.47
2023-04-29T12:25:19.617Z,98491.03
2023-04-29T12:28:38.140Z,98492.30
2023-04-29T12:31:57.531Z,98490.66
2023-04-29T12:35:24.570Z,98485.55
2023-04-29T12:38:41.911Z,98483.54
2023-04-29T12:42:03.973Z,98479.59
2023-04-29T12:45:37.209Z,98477.95
2023-04-29T12:48:55.150Z,98471.56
2023-04-29T12:52:11.823Z,98463.54
2023-04-29T12:55:28.546Z,98469.33
2023-04-29T12:58:46.545Z,98461.63
2023-04-29T13:02:02.887Z,98464.55
2023-04-29T13:05:20.003Z,98461.86
2023-04-29T13:08:38.812Z,98459.39
2023-04-29T13:11:55.204Z,98456.72
2023-04-29T13:15:13.573Z,98459.99
2023-04-29T13:18:31.425Z,98460.46
2023-04-29T13:21:49.846Z,98463.80
2023-04-29T13:25:06.172Z,98466.34
2023-04-29T13:28:23.220Z,98459.12
2023-04-29T13:31:39.598Z,98458.75
2023-04-29T13:34:57.354Z,98456.54
2023-04-29T13:38:13.643Z,98458.17
2023-04-29T13:41:34.490Z,98459.88
2023-04-29T13:48:52.392Z,98458.53
2023-04-29T13:52:32.260Z,98452.12
2023-04-29T13:55:58.711Z,98447.23
2023-04-29T14:05:11.483Z,98453.61
2023-04-29T14:08:28.500Z,98457.92
2023-04-29T14:11:44.575Z,98453.38
2023-04-29T14:15:01.019Z,98453.91
2023-04-29T14:18:17.870Z,98457.64
2023-04-29T14:21:34.686Z,98458.30
2023-04-29T14:24:51.887Z,98455.85
2023-04-29T14:28:09.532Z,98456.52
2023-04-29T14:31:25.790Z,98450.79
2023-04-29T14:34:42.206Z,98455.61
2023-04-29T14:37:58.760Z,98446.19
2023-04-29T14:41:18.865Z,98445.81
2023-04-29T14:44:35.501Z,98442.91
2023-04-29T14:47:54.249Z,98449.28
2023-04-29T14:51:11.725Z,98447.07
2023-04-29T14:54:28.913Z,98449.47
2023-04-29T14:57:45.906Z,98446.19
2023-04-29T15:01:02.402Z,98460.85
2023-04-29T15:04:18.724Z,98454.70
2023-04-29T15:07:35.433Z,98458.36
2023-04-29T15:10:52.143Z,98463.02
2023-04-29T15:14:08.539Z,98457.30
2023-04-29T15:17:25.091Z,98455.38
2023-04-29T15:20:46.074Z,98465.03
2023-04-29T15:24:03.190Z,98457.40
2023-04-29T15:27:20.678Z,98459.47
2023-04-29T15:30:37.694Z,98454.58
2023-04-29T15:33:54.338Z,98458.44
2023-04-29T15:37:10.843Z,98460.68
2023-04-29T15:40:27.843Z,98453.00
2023-04-29T15:43:51.267Z,98463.13
2023-04-29T15:47:07.780Z,98451.40
2023-04-29T15:50:24.311Z,98454.79
2023-04-29T15:53:40.587Z,98444.04
2023-04-29T15:56:58.406Z,98450.66
2023-04-29T16:00:17.519Z,98438.92
2023-04-29T16:03:31.919Z,98444.04
2023-04-29T16:06:48.238Z,98449.44
2023-04-29T16:10:05.414Z,98445.45
2023-04-29T16:13:22.081Z,98443.81
2023-04-29T16:16:38.793Z,98441.59
2023-04-29T16:19:55.582Z,98446.46
2023-04-29T16:23:12.454Z,98447.95
2023-04-29T16:26:29.051Z,98442.61
2023-04-29T16:29:46.119Z,98449.36
2023-04-29T16:33:02.900Z,98448.94
2023-04-29T16:36:19.636Z,98458.18
2023-04-29T16:39:35.923Z,98452.27
2023-04-29T16:42:52.437Z,98455.96
2023-04-29T16:46:09.040Z,98468.02
2023-04-29T16:49:29.912Z,98458.66
2023-04-29T16:52:46.549Z,98456.03
2023-04-29T16:56:04.047Z,98464.88
2023-04-29T16:59:20.755Z,98468.13
2023-04-29T17:02:38.245Z,98472.44
2023-04-29T17:05:55.074Z,98477.55
2023-04-29T17:09:12.435Z,98479.19
2023-04-29T17:12:29.240Z,98478.27
2023-04-29T17:15:46.133Z,98478.16
2023-04-29T17:19:03.356Z,98485.78
2023-04-29T17:22:21.413Z,98486.17
2023-04-29T17:25:39.525Z,98488.45
2023-04-29T17:28:56.035Z,98490.14
2023-04-29T17:32:17.384Z,98491.86
2023-04-29T17:35:31.704Z,98501.52
2023-04-29T17:38:47.816Z,98491.92
2023-04-29T17:42:04.654Z,98496.05
2023-04-29T17:45:22.531Z,98500.59
2023-04-29T17:48:39.101Z,98504.30
2023-04-29T17:51:55.706Z,98516.86
2023-04-29T17:55:13.062Z,98516.86
2023-04-29T17:58:29.862Z,98526.77
2023-04-29T18:01:46.492Z,98526.39
2023-04-29T18:05:02.914Z,98520.91
2023-04-29T18:08:22.204Z,98522.16
2023-04-29T18:11:38.842Z,98518.45
2023-04-29T18:14:55.327Z,98514.80
2023-04-29T18:18:13.885Z,98518.03
2023-04-29T18:21:37.514Z,98520.09
2023-04-29T18:24:54.084Z,98529.70
2023-04-29T18:28:23.534Z,98532.78
2023-04-29T18:31:31.690Z,98530.31
2023-04-29T18:34:52.274Z,98529.89
2023-04-29T18:38:13.445Z,98527.41
2023-04-29T18:41:30.027Z,98530.28
2023-04-29T18:44:48.494Z,98537.25
2023-04-29T18:48:07.064Z,98541.52
2023-04-29T18:51:24.057Z,98562.00
2023-04-29T18:54:42.369Z,98582.48
2023-04-29T18:58:03.077Z,98586.58
2023-04-29T19:01:23.782Z,98592.91
2023-04-29T19:04:48.645Z,98600.30
2023-04-29T19:08:05.643Z,98601.48
2023-04-29T19:11:27.362Z,98613.35
2023-04-29T19:14:51.729Z,98604.77
2023-04-29T19:18:12.332Z,98603.93
2023-04-29T19:21:36.502Z,98592.47
2023-04-29T19:24:53.755Z,98600.63
2023-04-29T19:28:28.301Z,98596.32
2023-04-29T19:31:38.274Z,98595.30
2023-04-29T19:34:58.986Z,98589.75
2023-04-29T19:38:15.927Z,98590.97
2023-04-29T19:41:35.185Z,98597.30
2023-04-29T19:44:55.306Z,98598.67
2023-04-29T19:48:12.769Z,98591.54
2023-04-29T19:51:30.625Z,98603.34
2023-04-29T19:54:47.558Z,98599.16
2023-04-29T19:58:04.070Z,98593.06
2023-04-29T20:01:21.154Z,98595.05
2023-04-29T20:04:37.990Z,98592.13
2023-04-29T20:07:54.679Z,98592.54
2023-04-29T20:11:12.364Z,98591.70
2023-04-29T20:14:29.335Z,98585.02
2023-04-29T20:17:46.230Z,98585.45
2023-04-29T20:21:03.228Z,98578.69
2023-04-29T20:24:19.965Z,98581.48
2023-04-29T20:27:36.770Z,98577.98
2023-04-29T20:30:53.644Z,98574.76
2023-04-29T20:34:10.249Z,98582.49
2023-04-29T20:37:26.855Z,98572.17
2023-04-29T20:40:44.732Z,98575.63
2023-04-29T20:44:01.227Z,98566.22
2023-04-29T20:47:18.218Z,98569.34
2023-04-29T20:50:34.887Z,98572.63
2023-04-29T20:53:51.515Z,98568.44
2023-04-29T20:57:08.607Z,98571.06
2023-04-29T21:00:26.399Z,98574.66
2023-04-29T21:03:43.053Z,98577.75
2023-04-29T21:06:59.693Z,98576.30
2023-04-29T21:10:20.596Z,98573.11
2023-04-29T21:13:37.265Z,98574.56
2023-04-29T21:16:55.474Z,98574.72
2023-04-29T21:20:37.986Z,98576.38
2023-04-29T21:24:11.532Z,98572.27
2023-04-29T21:27:27.944Z,98572.27
2023-04-29T21:30:44.516Z,98573.48
2023-04-29T21:34:01.184Z,98578.96
2023-04-29T21:37:17.574Z,98573.08
2023-04-29T21:40:34.042Z,98583.56
2023-04-29T21:43:50.554Z,98576.80
2023-04-29T21:47:10.201Z,98581.69
2023-04-29T21:50:27.780Z,98591.54
2023-04-29T21:53:44.476Z,98594.87
2023-04-29T21:57:00.997Z,98586.70
2023-04-29T22:00:28.781Z,98591.00
2023-04-29T22:03:45.123Z,98598.73
2023-04-29T22:07:01.989Z,98595.30
2023-04-29T22:10:19.398Z,98590.80
2023-04-29T22:13:35.726Z,98592.24
2023-04-29T22:16:52.291Z,98593.66
2023-04-29T22:20:08.925Z,98588.72
2023-04-29T22:23:25.582Z,98596.48
2023-04-29T22:26:41.962Z,98595.91
2023-04-29T22:29:58.347Z,98595.53
2023-04-29T22:33:14.840Z,98599.84
2023-04-29T22:36:32.456Z,98598.63
2023-04-29T22:39:51.228Z,98593.69
2023-04-29T22:43:07.895Z,98596.98
2023-04-29T22:46:24.403Z,98610.47
2023-04-29T22:49:41.784Z,98616.73
2023-04-29T22:52:58.428Z,98605.93
2023-04-29T22:56:15.514Z,98613.70
2023-04-29T22:59:31.770Z,98606.30
2023-04-29T23:02:48.580Z,98607.71
2023-04-29T23:06:08.129Z,98607.31
2023-04-29T23:09:24.578Z,98606.94
2023-04-29T23:12:43.871Z,98609.59
2023-04-29T23:15:58.855Z,98603.01
2023-04-29T23:19:15.080Z,98605.50
2023-04-29T23:22:31.449Z,98608.59
2023-04-29T23:25:47.931Z,98612.86
2023-04-29T23:29:04.323Z,98609.83
2023-04-29T23:32:21.673Z,98603.88
2023-04-29T23:35:37.968Z,98607.55
2023-04-29T23:38:54.891Z,98606.77
2023-04-29T23:42:11.320Z,98616.16
2023-04-29T23:45:27.904Z,98622.11
2023-04-29T23:48:44.208Z,98615.34
2023-04-29T23:52:00.511Z,98622.92
2023-04-29T23:55:18.849Z,98612.92
2023-04-29T23:58:35.113Z,98611.48
